createdAt,value
2023-03-31T00:01:42.273Z,8.73
2023-03-31T00:04:09.971Z,8.13
2023-03-31T00:06:42.019Z,9.05
2023-03-31T00:09:11.568Z,12.98
2023-03-31T00:11:38.824Z,15.52
2023-03-31T00:14:07.383Z,11.90
2023-03-31T00:16:37.826Z,23.45
2023-03-31T00:19:05.269Z,17.42
2023-03-31T00:21:34.839Z,16.30
2023-03-31T00:24:03.283Z,19.10
2023-03-31T00:26:29.929Z,18.88
2023-03-31T00:31:22.961Z,26.42
2023-03-31T00:33:50.079Z,35.45
2023-03-31T00:36:27.577Z,29.55
2023-03-31T00:38:55.161Z,28.08
2023-03-31T00:41:22.596Z,37.45
2023-03-31T00:44:08.633Z,41.45
2023-03-31T00:47:07.195Z,42.10
2023-03-31T00:49:40.530Z,39.05
2023-03-31T00:52:13.607Z,37.83
2023-03-31T00:57:09.321Z,46.67
2023-03-31T01:02:08.730Z,36.55
2023-03-31T01:04:38.384Z,37.10
2023-03-31T01:07:17.190Z,27.95
2023-03-31T01:09:47.842Z,41.60
2023-03-31T01:12:15.596Z,41.67
2023-03-31T01:14:42.251Z,38.92
2023-03-31T01:17:09.947Z,39.67
2023-03-31T01:19:42.793Z,37.47
2023-03-31T01:22:15.401Z,38.53
2023-03-31T01:24:47.451Z,37.42
2023-03-31T01:27:17.233Z,46.80
2023-03-31T01:29:43.847Z,39.78
2023-03-31T01:35:06.194Z,46.10
2023-03-31T01:37:43.454Z,40.00
2023-03-31T01:40:13.143Z,38.65
2023-03-31T01:42:40.410Z,44.72
2023-03-31T01:45:19.155Z,45.80
2023-03-31T01:47:48.964Z,48.50
2023-03-31T01:50:19.410Z,47.67
2023-03-31T01:52:46.084Z,48.53
2023-03-31T01:55:16.321Z,39.75
2023-03-31T02:00:15.835Z,51.05
2023-03-31T02:15:36.533Z,46.78
2023-03-31T02:18:06.331Z,41.05
2023-03-31T02:20:33.924Z,56.33
2023-03-31T02:23:00.913Z,46.78
2023-03-31T02:25:32.546Z,59.03
2023-03-31T02:28:05.370Z,53.90
2023-03-31T02:30:43.650Z,54.90
2023-03-31T02:40:28.546Z,60.60
2023-03-31T02:42:55.288Z,54.20
2023-03-31T02:48:14.848Z,56.38
2023-03-31T02:53:40.580Z,51.63
2023-03-31T02:56:13.271Z,57.78
2023-03-31T02:59:12.551Z,60.15
2023-03-31T03:01:44.778Z,45.30
2023-03-31T03:07:03.685Z,56.67
2023-03-31T03:12:05.874Z,38.78
2023-03-31T03:19:51.514Z,40.67
2023-03-31T03:22:18.293Z,39.30
2023-03-31T03:24:45.089Z,41.80
2023-03-31T03:27:11.727Z,36.78
2023-03-31T03:29:38.409Z,46.50
2023-03-31T03:32:05.113Z,38.78
2023-03-31T03:36:57.140Z,46.00
2023-03-31T03:39:23.902Z,37.83
2023-03-31T03:41:50.643Z,49.00
2023-03-31T03:44:17.262Z,42.60
2023-03-31T03:46:43.978Z,41.40
2023-03-31T03:49:10.713Z,46.40
2023-03-31T03:54:02.796Z,47.80
2023-03-31T04:04:23.389Z,44.15
2023-03-31T04:06:50.584Z,37.50
2023-03-31T04:09:17.322Z,33.47
2023-03-31T04:11:43.993Z,35.08
2023-03-31T04:14:10.809Z,27.38
2023-03-31T04:16:38.634Z,35.72
2023-03-31T04:19:05.413Z,26.40
2023-03-31T04:24:04.580Z,26.95
2023-03-31T04:29:09.609Z,23.45
2023-03-31T04:31:38.898Z,24.52
2023-03-31T04:34:06.975Z,24.95
2023-03-31T04:41:30.036Z,24.27
2023-03-31T04:43:56.775Z,24.83
2023-03-31T04:46:23.499Z,23.08
2023-03-31T04:48:50.286Z,22.35
2023-03-31T04:51:16.996Z,20.85
2023-03-31T04:53:43.721Z,21.85
2023-03-31T04:56:10.803Z,25.13
2023-03-31T04:58:37.482Z,22.17
2023-03-31T05:03:32.563Z,26.52
2023-03-31T05:05:59.441Z,19.60
2023-03-31T05:08:27.193Z,26.58
2023-03-31T05:10:53.904Z,28.65
2023-03-31T05:13:20.600Z,34.30
2023-03-31T05:18:16.440Z,32.22
2023-03-31T05:20:43.148Z,31.67
2023-03-31T05:25:35.418Z,25.90
2023-03-31T05:28:02.558Z,23.08
2023-03-31T05:30:29.888Z,26.77
2023-03-31T05:32:57.085Z,28.17
2023-03-31T05:35:24.173Z,30.23
2023-03-31T05:42:42.236Z,24.88
2023-03-31T05:45:09.447Z,31.90
2023-03-31T05:47:36.976Z,27.80
2023-03-31T05:50:07.681Z,26.58
2023-03-31T05:55:00.501Z,20.30
2023-03-31T05:57:27.223Z,29.92
2023-03-31T06:02:19.381Z,30.17
2023-03-31T06:04:46.136Z,23.98
2023-03-31T06:07:13.468Z,27.80
2023-03-31T06:12:05.786Z,30.08
2023-03-31T06:14:32.482Z,28.50
2023-03-31T06:16:59.173Z,30.85
2023-03-31T06:19:25.974Z,32.10
2023-03-31T06:21:52.606Z,25.25
2023-03-31T06:24:19.309Z,30.17
2023-03-31T06:26:45.963Z,30.73
2023-03-31T06:29:12.619Z,26.73
2023-03-31T06:31:39.445Z,21.27
2023-03-31T06:34:06.788Z,28.48
2023-03-31T06:36:33.478Z,29.05
2023-03-31T06:46:17.920Z,28.08
2023-03-31T06:48:44.708Z,25.08
2023-03-31T06:51:15.832Z,21.63
2023-03-31T06:53:42.472Z,20.95
2023-03-31T06:56:09.626Z,22.52
2023-03-31T06:58:36.744Z,18.88
2023-03-31T07:05:56.271Z,27.35
2023-03-31T07:18:08.015Z,25.75
2023-03-31T07:20:34.766Z,22.33
2023-03-31T07:23:04.227Z,15.75
2023-03-31T07:28:07.062Z,25.05
2023-03-31T07:30:33.895Z,16.63
2023-03-31T07:33:01.903Z,21.25
2023-03-31T07:37:54.395Z,23.70
2023-03-31T07:40:22.741Z,22.70
2023-03-31T07:42:49.847Z,21.73
2023-03-31T07:45:16.962Z,34.42
2023-03-31T07:47:44.913Z,21.58
2023-03-31T07:52:37.047Z,22.70
2023-03-31T07:55:04.220Z,18.52
2023-03-31T07:57:31.163Z,22.17
2023-03-31T07:59:57.954Z,21.65
2023-03-31T08:02:24.850Z,18.05
2023-03-31T08:12:08.396Z,14.80
2023-03-31T08:14:41.089Z,23.23
2023-03-31T08:17:09.336Z,21.25
2023-03-31T08:19:36.128Z,21.98
2023-03-31T08:22:02.888Z,19.42
2023-03-31T08:29:20.478Z,19.48
2023-03-31T08:31:47.261Z,18.15
2023-03-31T08:36:39.557Z,17.02
2023-03-31T08:39:07.558Z,13.52
2023-03-31T08:41:42.929Z,14.90
2023-03-31T08:44:13.514Z,22.27
2023-03-31T08:46:41.532Z,13.40
2023-03-31T08:54:08.184Z,19.67
2023-03-31T08:56:39.344Z,19.80
2023-03-31T08:59:07.102Z,17.40
2023-03-31T09:01:47.906Z,19.17
2023-03-31T09:04:40.921Z,11.07
2023-03-31T09:07:07.689Z,16.70
2023-03-31T09:09:34.357Z,15.77
2023-03-31T09:17:03.661Z,13.70
2023-03-31T09:19:30.388Z,16.40
2023-03-31T09:21:57.173Z,17.92
2023-03-31T09:24:29.316Z,13.57
2023-03-31T09:26:58.740Z,19.25
2023-03-31T09:32:17.077Z,15.45
2023-03-31T09:34:44.769Z,19.90
2023-03-31T09:37:11.577Z,21.40
2023-03-31T09:39:38.826Z,20.67
2023-03-31T09:42:05.821Z,20.02
2023-03-31T09:44:39.825Z,20.70
2023-03-31T09:47:11.200Z,16.30
2023-03-31T09:49:39.113Z,14.57
2023-03-31T09:54:50.337Z,16.88
2023-03-31T09:57:31.214Z,19.55
2023-03-31T10:00:12.875Z,20.65
2023-03-31T10:02:41.655Z,22.20
2023-03-31T10:05:19.069Z,23.50
2023-03-31T10:07:46.361Z,18.05
2023-03-31T10:10:25.217Z,20.98
2023-03-31T10:12:52.902Z,14.98
2023-03-31T10:15:25.873Z,14.43
2023-03-31T10:17:55.451Z,23.33
2023-03-31T10:20:38.307Z,28.70
2023-03-31T10:25:40.320Z,23.80
2023-03-31T10:28:06.988Z,21.67
2023-03-31T10:33:15.137Z,25.00
2023-03-31T10:35:50.194Z,18.08
2023-03-31T10:38:25.077Z,16.15
2023-03-31T10:40:53.022Z,16.17
2023-03-31T10:43:49.045Z,15.88
2023-03-31T10:51:11.596Z,20.65
2023-03-31T10:53:41.298Z,16.35
2023-03-31T10:56:14.699Z,9.18
2023-03-31T10:58:58.393Z,22.50
2023-03-31T11:03:57.910Z,14.35
2023-03-31T11:11:48.060Z,21.92
2023-03-31T11:14:24.796Z,23.35
2023-03-31T11:17:04.950Z,19.88
2023-03-31T11:19:34.472Z,23.50
2023-03-31T11:22:12.902Z,16.25
2023-03-31T11:24:42.776Z,17.42
2023-03-31T11:27:12.496Z,14.93
2023-03-31T11:29:48.327Z,22.58
2023-03-31T11:32:21.366Z,14.00
2023-03-31T11:34:48.918Z,19.35
2023-03-31T11:37:19.645Z,22.45
2023-03-31T11:44:43.003Z,22.05
2023-03-31T11:47:12.718Z,25.08
2023-03-31T11:49:41.644Z,21.63
2023-03-31T11:52:15.490Z,22.30
2023-03-31T11:54:48.265Z,16.10
2023-03-31T11:59:48.442Z,17.25
2023-03-31T12:02:32.262Z,21.50
2023-03-31T12:10:15.882Z,12.32
2023-03-31T12:12:46.205Z,12.75
2023-03-31T12:30:52.090Z,22.27
2023-03-31T12:33:22.345Z,10.25
2023-03-31T12:35:57.896Z,21.55
2023-03-31T12:38:43.367Z,30.42
2023-03-31T12:41:20.173Z,19.13
2023-03-31T12:43:53.783Z,20.65
2023-03-31T12:49:01.013Z,29.33
2023-03-31T12:54:02.085Z,27.63
2023-03-31T12:56:30.912Z,24.40
2023-03-31T13:02:09.383Z,20.42
2023-03-31T13:09:31.769Z,27.15
2023-03-31T13:11:58.512Z,25.23
2023-03-31T13:14:28.599Z,20.38
2023-03-31T13:17:12.207Z,24.55
2023-03-31T13:20:06.820Z,19.20
2023-03-31T13:22:35.192Z,17.90
2023-03-31T13:25:20.917Z,23.02
2023-03-31T13:46:04.489Z,22.50
2023-03-31T13:48:39.227Z,23.55
2023-03-31T13:53:46.697Z,27.98
2023-03-31T14:01:39.750Z,25.05
2023-03-31T14:04:06.459Z,27.40
2023-03-31T14:06:33.066Z,25.05
2023-03-31T14:09:26.312Z,33.05
2023-03-31T14:11:53.085Z,19.17
2023-03-31T14:14:19.770Z,22.73
2023-03-31T14:16:46.376Z,28.65
2023-03-31T14:19:31.446Z,16.92
2023-03-31T14:24:36.942Z,22.42
2023-03-31T14:37:17.989Z,24.88
2023-03-31T14:39:46.383Z,19.67
2023-03-31T14:50:13.338Z,25.20
2023-03-31T14:52:41.091Z,17.13
2023-03-31T14:55:13.962Z,31.33
2023-03-31T14:57:41.526Z,27.45
2023-03-31T15:00:10.002Z,27.42
2023-03-31T15:12:23.598Z,27.15
2023-03-31T15:14:51.952Z,27.95
2023-03-31T15:17:22.737Z,24.65
2023-03-31T15:19:57.203Z,21.70
2023-03-31T15:22:26.104Z,17.42
2023-03-31T15:24:53.249Z,27.88
2023-03-31T15:27:29.970Z,22.17
2023-03-31T15:30:04.566Z,16.48
2023-03-31T15:37:32.899Z,17.95
2023-03-31T15:40:01.017Z,22.80
2023-03-31T15:42:28.082Z,23.73
2023-03-31T15:44:55.969Z,26.38
2023-03-31T15:47:29.658Z,23.20
2023-03-31T15:50:08.168Z,21.15
2023-03-31T15:52:36.151Z,20.52
2023-03-31T15:55:22.765Z,21.25
2023-03-31T16:05:43.768Z,19.83
2023-03-31T16:11:30.025Z,29.90
2023-03-31T16:13:59.440Z,26.35
2023-03-31T16:16:27.343Z,24.63
2023-03-31T16:19:04.634Z,27.42
2023-03-31T16:21:39.127Z,25.15
2023-03-31T16:26:31.482Z,28.58
2023-03-31T16:28:58.207Z,29.30
2023-03-31T16:31:34.717Z,24.00
2023-03-31T16:34:02.574Z,26.52
2023-03-31T16:36:29.279Z,23.55
2023-03-31T16:41:23.357Z,25.35
2023-03-31T16:43:52.609Z,20.42
2023-03-31T16:51:10.418Z,28.15
2023-03-31T16:53:37.323Z,21.25
2023-03-31T16:56:04.744Z,21.45
2023-03-31T16:58:31.619Z,20.77
2023-03-31T17:00:58.374Z,30.20
2023-03-31T17:03:25.297Z,24.13
2023-03-31T17:05:55.651Z,25.02
2023-03-31T17:08:24.628Z,22.00
2023-03-31T17:11:15.086Z,23.50
2023-03-31T17:13:42.733Z,26.17
2023-03-31T17:16:20.327Z,22.15
2023-03-31T17:18:53.731Z,20.42
2023-03-31T17:21:20.477Z,26.25
2023-03-31T17:23:47.660Z,21.52
2023-03-31T17:28:40.534Z,31.80
2023-03-31T17:31:17.506Z,30.65
2023-03-31T17:33:44.415Z,17.83
2023-03-31T17:36:11.605Z,23.55
2023-03-31T17:38:42.102Z,36.08
2023-03-31T17:41:11.162Z,26.67
2023-03-31T17:43:38.264Z,36.60
2023-03-31T17:46:06.374Z,22.17
2023-03-31T17:48:41.036Z,22.83
2023-03-31T17:53:35.613Z,27.67
2023-03-31T17:56:03.580Z,19.27
2023-03-31T18:03:22.101Z,31.40
2023-03-31T18:05:49.200Z,22.13
2023-03-31T18:08:16.022Z,23.52
2023-03-31T18:10:43.058Z,29.38
2023-03-31T18:15:35.841Z,28.02
2023-03-31T18:18:02.781Z,19.77
2023-03-31T18:25:20.751Z,24.90
2023-03-31T18:35:06.477Z,29.83
2023-03-31T18:37:33.983Z,23.88
2023-03-31T18:40:01.634Z,28.92
2023-03-31T18:42:28.379Z,28.48
2023-03-31T18:44:55.032Z,20.08
2023-03-31T18:47:21.812Z,29.65
2023-03-31T18:49:53.462Z,36.25
2023-03-31T18:52:20.221Z,30.08
2023-03-31T18:54:47.065Z,36.22
2023-03-31T18:57:13.764Z,33.72
2023-03-31T18:59:40.431Z,32.30
2023-03-31T19:02:07.480Z,29.60
2023-03-31T19:04:34.253Z,26.42
2023-03-31T19:07:01.394Z,26.08
2023-03-31T19:09:28.149Z,30.33
2023-03-31T19:11:55.012Z,34.25
2023-03-31T19:14:22.326Z,25.98
2023-03-31T19:16:49.486Z,37.72
2023-03-31T19:21:42.845Z,29.67
2023-03-31T19:24:09.760Z,31.55
2023-03-31T19:26:37.331Z,35.40
2023-03-31T19:29:05.337Z,16.52
2023-03-31T19:34:04.764Z,28.90
2023-03-31T19:36:31.784Z,40.00
2023-03-31T19:46:18.526Z,31.00
2023-03-31T19:48:47.803Z,33.58
2023-03-31T19:51:14.531Z,33.05
2023-03-31T19:53:41.298Z,40.35
2023-03-31T19:56:12.022Z,39.00
2023-03-31T19:58:39.232Z,34.80
2023-03-31T20:01:07.663Z,21.60
2023-03-31T20:03:34.836Z,34.45
2023-03-31T20:16:02.913Z,37.75
2023-03-31T20:28:29.073Z,40.50
2023-03-31T20:30:58.864Z,27.48
2023-03-31T20:33:26.336Z,27.80
2023-03-31T20:38:28.527Z,27.27
2023-03-31T20:40:55.752Z,23.45
2023-03-31T20:45:57.879Z,25.10
2023-03-31T20:48:25.785Z,23.95
2023-03-31T20:50:53.140Z,29.13
2023-03-31T20:53:19.812Z,22.33
2023-03-31T20:55:46.613Z,35.65
2023-03-31T20:58:13.484Z,29.23
2023-03-31T21:00:40.539Z,42.10
2023-03-31T21:03:07.346Z,28.90
2023-03-31T21:05:40.596Z,29.90
2023-03-31T21:08:07.406Z,35.60
2023-03-31T21:10:39.051Z,26.17
2023-03-31T21:13:05.910Z,25.20
2023-03-31T21:22:57.395Z,25.75
2023-03-31T21:25:24.879Z,30.77
2023-03-31T21:30:17.852Z,25.50
2023-03-31T21:32:45.241Z,23.85
2023-03-31T21:35:12.317Z,31.38
2023-03-31T21:37:38.971Z,30.88
2023-03-31T21:40:06.272Z,25.58
2023-03-31T21:42:34.554Z,25.65
2023-03-31T21:45:01.300Z,18.85
2023-03-31T21:47:28.502Z,25.70
2023-03-31T21:49:55.290Z,29.40
2023-03-31T21:55:24.659Z,28.25
2023-03-31T21:57:51.396Z,29.40
2023-03-31T22:00:18.288Z,27.02
2023-03-31T22:07:36.896Z,18.70
2023-03-31T22:10:04.030Z,19.88
2023-03-31T22:12:30.927Z,24.95
2023-03-31T22:14:57.595Z,29.80
2023-03-31T22:17:24.672Z,24.52
2023-03-31T22:22:17.017Z,20.15
2023-03-31T22:24:43.776Z,15.13
2023-03-31T22:27:10.626Z,21.48
2023-03-31T22:29:37.559Z,21.67
2023-03-31T22:32:04.460Z,23.15
2023-03-31T22:36:57.537Z,17.55
2023-03-31T22:39:24.357Z,21.40
2023-03-31T22:47:19.834Z,22.08
2023-03-31T22:49:46.942Z,29.73
2023-03-31T22:52:13.607Z,18.35
2023-03-31T22:54:41.228Z,21.33
2023-03-31T22:57:08.463Z,30.00
2023-03-31T22:59:36.286Z,12.77
2023-03-31T23:02:03.596Z,22.48
2023-03-31T23:04:34.248Z,24.30
2023-03-31T23:07:00.925Z,23.92
2023-03-31T23:09:28.069Z,22.77
2023-03-31T23:11:54.964Z,28.33
2023-03-31T23:14:22.900Z,17.50
2023-03-31T23:16:49.760Z,15.23
2023-03-31T23:19:18.489Z,17.42
2023-03-31T23:21:45.408Z,17.15
2023-03-31T23:24:12.480Z,23.63
2023-03-31T23:26:39.258Z,20.08
2023-03-31T23:29:06.198Z,21.45
2023-03-31T23:31:33.253Z,17.42
2023-03-31T23:34:00.469Z,23.65
2023-03-31T23:36:28.011Z,24.40
2023-03-31T23:41:22.911Z,19.80
2023-03-31T23:43:51.019Z,21.45
2023-03-31T23:46:17.904Z,15.57
2023-03-31T23:53:35.971Z,22.63
2023-03-31T23:58:30.148Z,24.77
